createdAt,value
2022-12-29T00:00:11.231Z,1.20
2022-12-29T00:02:38.268Z,1.10
2022-12-29T00:05:05.946Z,1.10
2022-12-29T00:07:33.009Z,1.10
2022-12-29T00:10:00.048Z,1.00
2022-12-29T00:12:47.172Z,1.00
2022-12-29T00:15:32.773Z,1.00
2022-12-29T00:17:59.820Z,1.00
2022-12-29T00:20:45.269Z,0.90
2022-12-29T00:23:31.034Z,0.90
2022-12-29T00:26:16.599Z,0.80
2022-12-29T00:29:03.308Z,0.80
2022-12-29T00:31:49.219Z,0.80
2022-12-29T00:34:34.987Z,0.70
2022-12-29T00:37:02.210Z,0.70
2022-12-29T00:39:47.848Z,0.70
2022-12-29T00:42:33.604Z,0.60
2022-12-29T00:45:00.683Z,0.60
2022-12-29T00:47:27.921Z,0.60
2022-12-29T00:49:54.957Z,0.50
2022-12-29T00:52:22.027Z,0.50
2022-12-29T00:54:49.047Z,0.50
2022-12-29T00:57:16.086Z,0.50
2022-12-29T00:59:46.446Z,0.40
2022-12-29T01:02:13.600Z,0.40
2022-12-29T01:04:40.656Z,0.40
2022-12-29T01:07:07.751Z,0.40
2022-12-29T01:09:53.460Z,0.50
2022-12-29T01:12:40.454Z,0.50
2022-12-29T01:15:10.027Z,0.40
2022-12-29T01:17:37.113Z,0.50
2022-12-29T01:20:05.274Z,0.50
2022-12-29T01:22:32.311Z,0.40
2022-12-29T01:24:59.453Z,0.40
2022-12-29T01:27:27.066Z,0.40
2022-12-29T01:29:54.114Z,0.40
2022-12-29T01:32:21.293Z,0.40
2022-12-29T01:34:48.292Z,0.40
2022-12-29T01:37:15.346Z,0.40
2022-12-29T01:39:42.390Z,0.40
2022-12-29T01:42:20.875Z,0.50
2022-12-29T01:44:58.160Z,0.50
2022-12-29T01:47:32.343Z,0.60
2022-12-29T01:50:10.334Z,0.60
2022-12-29T01:52:43.317Z,0.60
2022-12-29T01:55:12.041Z,0.70
2022-12-29T01:57:42.039Z,0.70
2022-12-29T02:00:12.548Z,0.70
2022-12-29T02:02:41.265Z,0.70
2022-12-29T02:05:34.680Z,0.80
2022-12-29T02:08:03.276Z,0.80
2022-12-29T02:10:33.988Z,0.80
2022-12-29T02:13:01.041Z,0.80
2022-12-29T02:15:37.156Z,0.80
2022-12-29T02:18:12.959Z,0.80
2022-12-29T02:20:59.265Z,0.80
2022-12-29T02:24:14.730Z,0.80
2022-12-29T02:26:54.965Z,0.80
2022-12-29T02:29:42.570Z,0.80
2022-12-29T02:32:16.452Z,0.80
2022-12-29T02:34:52.203Z,0.80
2022-12-29T02:37:27.772Z,0.80
2022-12-29T02:40:00.767Z,0.80
2022-12-29T02:42:51.894Z,0.80
2022-12-29T02:45:34.460Z,0.80
2022-12-29T02:48:31.403Z,0.90
2022-12-29T02:51:29.774Z,0.90
2022-12-29T02:54:16.836Z,0.90
2022-12-29T02:56:44.160Z,0.90
2022-12-29T02:59:12.836Z,0.90
2022-12-29T03:02:18.251Z,0.90
2022-12-29T03:05:03.822Z,0.90
2022-12-29T03:07:48.230Z,0.90
2022-12-29T03:10:47.775Z,0.90
2022-12-29T03:14:12.023Z,0.90
2022-12-29T03:17:20.073Z,0.80
2022-12-29T03:19:51.021Z,0.90
2022-12-29T03:22:31.847Z,0.80
2022-12-29T03:25:11.611Z,0.90
2022-12-29T03:27:50.424Z,0.90
2022-12-29T03:30:18.096Z,0.90
2022-12-29T03:32:51.538Z,0.90
2022-12-29T03:35:23.890Z,0.90
2022-12-29T03:38:23.671Z,0.90
2022-12-29T03:40:57.637Z,1.00
2022-12-29T03:43:25.789Z,1.00
2022-12-29T03:45:52.961Z,1.00
2022-12-29T03:48:20.134Z,1.00
2022-12-29T03:50:47.163Z,1.00
2022-12-29T03:53:14.162Z,1.00
2022-12-29T03:55:41.800Z,1.00
2022-12-29T03:58:08.925Z,1.00
2022-12-29T04:00:35.923Z,1.00
2022-12-29T04:03:03.179Z,1.00
2022-12-29T04:05:30.548Z,1.00
2022-12-29T04:07:57.614Z,1.00
2022-12-29T04:10:24.685Z,1.00
2022-12-29T04:12:51.770Z,1.00
2022-12-29T04:15:18.780Z,1.00
2022-12-29T04:17:45.857Z,1.00
2022-12-29T04:20:31.265Z,1.00
2022-12-29T04:23:03.121Z,1.00
2022-12-29T04:25:32.251Z,1.00
2022-12-29T04:27:59.489Z,1.00
2022-12-29T04:30:26.762Z,1.00
2022-12-29T04:32:53.782Z,1.00
2022-12-29T04:35:20.827Z,1.00
2022-12-29T04:37:47.850Z,1.00
2022-12-29T04:40:15.004Z,1.00
2022-12-29T04:42:41.998Z,1.00
2022-12-29T04:45:09.569Z,1.00
2022-12-29T04:47:36.552Z,1.00
2022-12-29T04:50:03.883Z,1.00
2022-12-29T04:52:30.879Z,1.00
2022-12-29T04:54:57.900Z,1.00
2022-12-29T04:57:25.091Z,1.00
2022-12-29T04:59:52.134Z,1.00
2022-12-29T05:02:19.424Z,0.90
2022-12-29T05:04:47.237Z,1.00
2022-12-29T05:07:14.307Z,1.00
2022-12-29T05:09:41.419Z,1.00
2022-12-29T05:12:08.630Z,1.00
2022-12-29T05:14:35.655Z,1.00
2022-12-29T05:17:02.726Z,1.00
2022-12-29T05:19:29.815Z,1.00
2022-12-29T05:21:56.817Z,1.00
2022-12-29T05:24:23.827Z,1.00
2022-12-29T05:26:50.990Z,1.00
2022-12-29T05:29:18.231Z,1.00
2022-12-29T05:31:45.327Z,1.00
2022-12-29T05:34:13.628Z,1.00
2022-12-29T05:36:41.647Z,1.00
2022-12-29T05:39:11.476Z,1.00
2022-12-29T05:41:38.551Z,1.00
2022-12-29T05:44:05.591Z,1.00
2022-12-29T05:46:32.735Z,0.90
2022-12-29T05:49:00.528Z,0.90
2022-12-29T05:51:27.615Z,0.90
2022-12-29T05:53:54.764Z,1.00
2022-12-29T05:56:21.818Z,1.00
2022-12-29T05:58:48.893Z,1.00
2022-12-29T06:01:15.916Z,1.00
2022-12-29T06:03:48.124Z,1.00
2022-12-29T06:06:15.983Z,1.00
2022-12-29T06:08:43.093Z,1.00
2022-12-29T06:11:10.407Z,1.00
2022-12-29T06:13:37.591Z,1.00
2022-12-29T06:16:04.862Z,1.00
2022-12-29T06:18:31.995Z,1.00
2022-12-29T06:21:03.408Z,1.00
2022-12-29T06:23:30.623Z,1.00
2022-12-29T06:25:58.713Z,1.00
2022-12-29T06:28:25.842Z,1.00
2022-12-29T06:30:53.145Z,1.00
2022-12-29T06:33:20.259Z,1.00
2022-12-29T06:35:47.294Z,1.00
2022-12-29T06:38:14.445Z,1.00
2022-12-29T06:40:43.241Z,1.00
2022-12-29T06:43:10.386Z,1.00
2022-12-29T06:45:41.223Z,1.00
2022-12-29T06:48:08.959Z,1.00
2022-12-29T06:50:36.127Z,1.00
2022-12-29T06:53:03.342Z,1.00
2022-12-29T06:55:30.582Z,1.10
2022-12-29T06:57:58.915Z,1.00
2022-12-29T07:00:26.916Z,1.10
2022-12-29T07:02:57.768Z,1.00
2022-12-29T07:05:28.916Z,1.00
2022-12-29T07:07:56.457Z,1.00
2022-12-29T07:10:23.999Z,1.10
2022-12-29T07:12:51.129Z,1.00
2022-12-29T07:15:18.290Z,1.10
2022-12-29T07:17:45.332Z,1.10
2022-12-29T07:20:12.601Z,1.10
2022-12-29T07:22:39.857Z,1.20
2022-12-29T07:25:07.101Z,1.10
2022-12-29T07:27:34.145Z,1.20
2022-12-29T07:30:01.136Z,1.20
2022-12-29T07:32:28.173Z,1.20
2022-12-29T07:34:55.292Z,1.30
2022-12-29T07:37:22.303Z,1.30
2022-12-29T07:39:49.322Z,1.30
2022-12-29T07:42:16.370Z,1.40
2022-12-29T07:44:44.780Z,1.50
2022-12-29T07:47:11.846Z,1.50
2022-12-29T07:49:38.985Z,1.50
2022-12-29T07:52:06.073Z,1.60
2022-12-29T07:54:33.104Z,1.60
2022-12-29T07:57:01.397Z,1.60
2022-12-29T07:59:28.522Z,1.70
2022-12-29T08:01:55.639Z,1.70
2022-12-29T08:04:23.034Z,1.70
2022-12-29T08:06:51.359Z,1.70
2022-12-29T08:09:22.651Z,1.70
2022-12-29T08:11:51.373Z,1.80
2022-12-29T08:14:18.525Z,1.80
2022-12-29T08:16:45.662Z,1.90
2022-12-29T08:19:13.644Z,1.90
2022-12-29T08:21:40.828Z,2.00
2022-12-29T08:24:09.429Z,2.00
2022-12-29T08:26:36.493Z,2.10
2022-12-29T08:29:03.563Z,2.10
2022-12-29T08:31:30.790Z,2.10
2022-12-29T08:33:57.920Z,2.20
2022-12-29T08:36:24.967Z,2.20
2022-12-29T08:38:52.012Z,2.20
2022-12-29T08:41:19.125Z,2.30
2022-12-29T08:43:50.436Z,2.30
2022-12-29T08:46:18.166Z,2.30
2022-12-29T08:48:45.405Z,2.40
2022-12-29T08:51:12.742Z,2.40
2022-12-29T08:53:39.898Z,2.50
2022-12-29T08:56:07.941Z,2.50
2022-12-29T08:58:35.026Z,2.60
2022-12-29T09:01:02.082Z,2.60
2022-12-29T09:04:12.213Z,2.70
2022-12-29T09:06:18.632Z,2.70
2022-12-29T09:08:46.256Z,2.80
2022-12-29T09:11:20.437Z,2.80
2022-12-29T09:13:47.940Z,2.90
2022-12-29T09:16:16.431Z,3.00
2022-12-29T09:18:43.523Z,3.00
2022-12-29T09:21:12.070Z,3.10
2022-12-29T09:23:39.299Z,3.20
2022-12-29T09:26:06.595Z,3.30
2022-12-29T09:28:33.671Z,3.40
2022-12-29T09:31:01.248Z,3.50
2022-12-29T09:33:28.937Z,3.60
2022-12-29T09:35:58.806Z,3.70
2022-12-29T09:38:27.971Z,3.70
2022-12-29T09:41:13.254Z,3.80
2022-12-29T09:44:08.434Z,3.80
2022-12-29T09:46:51.516Z,3.80
2022-12-29T09:49:51.028Z,3.80
2022-12-29T09:52:23.880Z,3.80
2022-12-29T09:55:02.411Z,3.80
2022-12-29T09:57:39.815Z,3.70
2022-12-29T10:00:19.992Z,3.70
2022-12-29T10:02:53.297Z,3.80
2022-12-29T10:05:38.265Z,3.70
2022-12-29T10:08:36.289Z,3.60
2022-12-29T10:11:28.095Z,3.60
2022-12-29T10:14:22.487Z,3.70
2022-12-29T10:16:57.694Z,3.70
2022-12-29T10:19:48.782Z,3.70
2022-12-29T10:22:45.783Z,3.80
2022-12-29T10:25:19.745Z,3.90
2022-12-29T10:27:59.752Z,4.00
2022-12-29T10:30:27.235Z,4.00
2022-12-29T10:33:02.347Z,4.00
2022-12-29T10:35:41.719Z,4.00
2022-12-29T10:38:32.090Z,3.80
2022-12-29T10:41:06.826Z,3.80
2022-12-29T10:43:47.926Z,3.70
2022-12-29T10:46:30.436Z,3.70
2022-12-29T10:48:57.554Z,3.80
2022-12-29T10:51:29.614Z,3.80
2022-12-29T10:54:06.176Z,3.80
2022-12-29T10:56:39.098Z,3.80
2022-12-29T10:59:22.756Z,3.80
2022-12-29T11:02:21.924Z,3.90
2022-12-29T11:05:10.006Z,4.00
2022-12-29T11:07:37.973Z,4.10
2022-12-29T11:10:21.568Z,4.20
2022-12-29T11:13:23.254Z,4.30
2022-12-29T11:15:51.958Z,4.40
2022-12-29T11:18:38.782Z,4.60
2022-12-29T11:21:08.548Z,4.80
2022-12-29T11:23:41.084Z,4.80
2022-12-29T11:26:25.328Z,4.90
2022-12-29T11:29:09.664Z,4.90
2022-12-29T11:31:48.694Z,5.00
2022-12-29T11:34:33.843Z,5.10
2022-12-29T11:37:18.916Z,5.00
2022-12-29T11:39:48.734Z,5.00
2022-12-29T11:42:19.106Z,5.00
2022-12-29T11:44:48.666Z,5.00
2022-12-29T11:47:37.607Z,5.00
2022-12-29T11:50:09.348Z,4.90
2022-12-29T11:52:40.906Z,4.90
2022-12-29T11:55:23.466Z,4.80
2022-12-29T11:57:53.333Z,4.80
2022-12-29T12:00:26.190Z,4.70
2022-12-29T12:03:28.165Z,4.70
2022-12-29T12:05:55.413Z,4.70
2022-12-29T12:08:45.305Z,4.70
2022-12-29T12:11:23.883Z,4.70
2022-12-29T12:14:26.621Z,4.70
2022-12-29T12:17:21.835Z,4.70
2022-12-29T12:20:11.631Z,4.70
2022-12-29T12:22:50.858Z,4.70
2022-12-29T12:25:56.359Z,4.60
2022-12-29T12:28:36.959Z,4.60
2022-12-29T12:31:16.916Z,4.60
2022-12-29T12:33:49.491Z,4.50
2022-12-29T12:36:34.762Z,4.50
2022-12-29T12:39:23.923Z,4.50
2022-12-29T12:42:16.467Z,4.50
2022-12-29T12:44:49.267Z,4.50
2022-12-29T12:47:34.212Z,4.50
2022-12-29T12:50:22.727Z,4.50
2022-12-29T12:52:58.697Z,4.50
2022-12-29T12:55:53.456Z,4.40
2022-12-29T12:58:30.663Z,4.40
2022-12-29T13:01:26.262Z,4.30
2022-12-29T13:04:14.335Z,4.30
2022-12-29T13:07:03.795Z,4.30
2022-12-29T13:09:46.337Z,4.30
2022-12-29T13:12:51.552Z,4.40
2022-12-29T13:15:38.729Z,4.40
2022-12-29T13:18:05.817Z,4.40
2022-12-29T13:21:01.686Z,4.50
2022-12-29T13:23:51.071Z,4.50
2022-12-29T13:26:45.581Z,4.60
2022-12-29T13:29:30.551Z,4.60
2022-12-29T13:32:25.102Z,4.50
2022-12-29T13:35:06.017Z,4.50
2022-12-29T13:37:36.388Z,4.50
2022-12-29T13:40:14.640Z,4.50
2022-12-29T13:42:43.245Z,4.50
2022-12-29T13:45:18.556Z,4.50
2022-12-29T13:48:20.527Z,4.50
2022-12-29T13:50:59.645Z,4.50
2022-12-29T13:53:38.002Z,4.50
2022-12-29T13:56:11.900Z,4.50
2022-12-29T13:58:43.229Z,4.50
2022-12-29T14:01:13.629Z,4.50
2022-12-29T14:03:55.922Z,4.50
2022-12-29T14:06:29.565Z,4.50
2022-12-29T14:09:30.407Z,4.40
2022-12-29T14:12:02.329Z,4.40
2022-12-29T14:14:31.724Z,4.30
2022-12-29T14:17:15.098Z,4.30
2022-12-29T14:19:46.314Z,4.20
2022-12-29T14:22:13.971Z,4.10
2022-12-29T14:24:44.875Z,4.10
2022-12-29T14:27:11.970Z,4.10
2022-12-29T14:29:41.858Z,4.00
2022-12-29T14:32:27.211Z,4.00
2022-12-29T14:34:59.288Z,4.00
2022-12-29T14:37:35.410Z,3.90
2022-12-29T14:40:19.134Z,3.90
2022-12-29T14:42:57.012Z,3.90
2022-12-29T14:45:30.159Z,3.90
2022-12-29T14:47:57.984Z,3.80
2022-12-29T14:50:44.785Z,3.80
2022-12-29T14:53:47.854Z,3.80
2022-12-29T14:56:18.804Z,3.70
2022-12-29T14:58:56.778Z,3.70
2022-12-29T15:01:48.812Z,3.70
2022-12-29T15:04:24.093Z,3.70
2022-12-29T15:06:55.170Z,3.70
2022-12-29T15:09:51.961Z,3.60
2022-12-29T15:12:47.977Z,3.60
2022-12-29T15:15:41.309Z,3.60
2022-12-29T15:18:30.168Z,3.60
2022-12-29T15:21:13.972Z,3.50
2022-12-29T15:23:43.399Z,3.50
2022-12-29T15:26:11.467Z,3.50
2022-12-29T15:28:47.468Z,3.50
2022-12-29T15:31:30.145Z,3.50
2022-12-29T15:34:12.642Z,3.50
2022-12-29T15:36:41.414Z,3.50
2022-12-29T15:39:41.913Z,3.60
2022-12-29T15:42:49.808Z,3.50
2022-12-29T15:45:17.560Z,3.50
2022-12-29T15:47:49.992Z,3.50
2022-12-29T15:50:32.621Z,3.50
2022-12-29T15:53:00.525Z,3.60
2022-12-29T15:55:36.093Z,3.60
2022-12-29T15:58:19.750Z,3.60
2022-12-29T16:00:54.217Z,3.60
2022-12-29T16:03:24.012Z,3.60
2022-12-29T16:05:59.157Z,3.60
2022-12-29T16:08:34.855Z,3.60
2022-12-29T16:11:05.348Z,3.60
2022-12-29T16:13:40.395Z,3.60
2022-12-29T16:16:22.635Z,3.60
2022-12-29T16:18:57.406Z,3.60
2022-12-29T16:21:30.145Z,3.60
2022-12-29T16:24:04.238Z,3.60
2022-12-29T16:26:31.288Z,3.70
2022-12-29T16:29:02.438Z,3.70
2022-12-29T16:31:52.542Z,3.70
2022-12-29T16:34:46.331Z,3.70
2022-12-29T16:37:32.756Z,3.70
2022-12-29T16:40:21.464Z,3.70
2022-12-29T16:42:52.352Z,3.80
2022-12-29T16:45:19.689Z,3.80
2022-12-29T16:48:05.790Z,3.80
2022-12-29T16:50:37.889Z,3.80
2022-12-29T16:53:06.670Z,3.90
2022-12-29T16:55:34.092Z,3.90
2022-12-29T16:58:01.845Z,3.90
2022-12-29T17:00:34.818Z,3.90
2022-12-29T17:03:02.998Z,3.90
2022-12-29T17:05:30.220Z,3.90
2022-12-29T17:08:02.017Z,3.90
2022-12-29T17:10:48.577Z,3.90
2022-12-29T17:13:15.630Z,4.00
2022-12-29T17:15:43.415Z,4.00
2022-12-29T17:18:14.322Z,4.00
2022-12-29T17:20:42.368Z,4.10
2022-12-29T17:23:19.968Z,4.10
2022-12-29T17:25:55.278Z,4.10
2022-12-29T17:28:32.763Z,4.20
2022-12-29T17:31:06.126Z,4.20
2022-12-29T17:33:42.975Z,4.20
2022-12-29T17:36:11.471Z,4.30
2022-12-29T17:38:38.731Z,4.30
2022-12-29T17:41:14.655Z,4.30
2022-12-29T17:43:41.766Z,4.30
2022-12-29T17:46:09.247Z,4.30
2022-12-29T17:48:36.600Z,4.40
2022-12-29T17:51:03.773Z,4.40
2022-12-29T17:53:31.594Z,4.40
2022-12-29T17:55:58.883Z,4.40
2022-12-29T17:58:29.052Z,4.40
2022-12-29T18:00:59.834Z,4.40
2022-12-29T18:03:36.502Z,4.40
2022-12-29T18:06:06.757Z,4.50
2022-12-29T18:08:38.983Z,4.50
2022-12-29T18:11:27.025Z,4.60
2022-12-29T18:13:54.547Z,4.50
2022-12-29T18:16:23.427Z,4.60
2022-12-29T18:18:50.809Z,4.50
2022-12-29T18:21:21.061Z,4.60
2022-12-29T18:23:49.261Z,4.60
2022-12-29T18:26:27.700Z,4.60
2022-12-29T18:28:56.490Z,4.60
2022-12-29T18:31:29.875Z,4.70
2022-12-29T18:33:58.855Z,4.70
2022-12-29T18:36:27.031Z,4.70
2022-12-29T18:38:55.145Z,4.70
2022-12-29T18:41:24.926Z,4.70
2022-12-29T18:43:52.212Z,4.80
2022-12-29T18:46:23.023Z,4.80
2022-12-29T18:48:51.729Z,4.80
2022-12-29T18:51:21.864Z,4.80
2022-12-29T18:53:49.504Z,4.80
2022-12-29T18:56:16.647Z,4.80
2022-12-29T18:58:43.723Z,4.80
2022-12-29T19:01:23.815Z,4.80
2022-12-29T19:03:51.682Z,4.80
2022-12-29T19:06:21.545Z,4.80
2022-12-29T19:08:48.735Z,4.80
2022-12-29T19:11:15.968Z,4.80
2022-12-29T19:13:43.282Z,4.80
2022-12-29T19:16:19.633Z,4.80
2022-12-29T19:18:58.120Z,4.80
2022-12-29T19:21:33.996Z,4.70
2022-12-29T19:24:01.170Z,4.70
2022-12-29T19:26:30.257Z,4.70
2022-12-29T19:28:58.590Z,4.70
2022-12-29T19:31:26.206Z,4.70
2022-12-29T19:33:53.866Z,4.70
2022-12-29T19:36:22.303Z,4.70
2022-12-29T19:38:49.657Z,4.70
2022-12-29T19:41:16.843Z,4.70
2022-12-29T19:43:44.117Z,4.70
2022-12-29T19:46:15.328Z,4.70
2022-12-29T19:48:42.701Z,4.70
2022-12-29T19:51:13.522Z,4.70
2022-12-29T19:53:40.655Z,4.70
2022-12-29T19:56:09.475Z,4.70
2022-12-29T19:58:42.599Z,4.70
2022-12-29T20:01:16.270Z,4.80
2022-12-29T20:03:43.683Z,4.80
2022-12-29T20:06:12.182Z,4.80
2022-12-29T20:08:40.905Z,4.80
2022-12-29T20:11:13.390Z,4.80
2022-12-29T20:13:41.143Z,4.80
2022-12-29T20:16:12.255Z,4.90
2022-12-29T20:18:40.261Z,4.90
2022-12-29T20:21:09.680Z,4.90
2022-12-29T20:23:38.710Z,4.90
2022-12-29T20:26:09.289Z,4.90
2022-12-29T20:28:36.486Z,4.90
2022-12-29T20:31:08.286Z,4.80
2022-12-29T20:33:36.119Z,4.80
2022-12-29T20:36:17.846Z,4.80
2022-12-29T20:38:45.900Z,4.80
2022-12-29T20:41:14.206Z,4.70
2022-12-29T20:43:42.220Z,4.70
2022-12-29T20:46:09.948Z,4.60
2022-12-29T20:48:37.928Z,4.60
2022-12-29T20:51:05.151Z,4.60
2022-12-29T20:53:33.639Z,4.60
2022-12-29T20:56:04.512Z,4.60
2022-12-29T20:58:32.380Z,4.50
2022-12-29T21:01:05.334Z,4.50
2022-12-29T21:03:32.721Z,4.50
2022-12-29T21:06:00.589Z,4.40
2022-12-29T21:08:30.671Z,4.40
2022-12-29T21:10:59.180Z,4.40
2022-12-29T21:13:27.116Z,4.30
2022-12-29T21:16:00.097Z,4.30
2022-12-29T21:18:28.837Z,4.20
2022-12-29T21:21:14.667Z,4.10
2022-12-29T21:23:41.791Z,4.10
2022-12-29T21:26:10.076Z,4.00
2022-12-29T21:28:41.659Z,4.00
2022-12-29T21:31:11.165Z,3.90
2022-12-29T21:33:38.681Z,3.90
2022-12-29T21:36:08.109Z,3.80
2022-12-29T21:38:36.136Z,3.70
2022-12-29T21:41:11.404Z,3.70
2022-12-29T21:43:39.172Z,3.70
2022-12-29T21:46:07.448Z,3.60
2022-12-29T21:48:34.881Z,3.70
2022-12-29T21:51:32.554Z,3.70
2022-12-29T21:54:20.702Z,3.60
2022-12-29T21:56:49.028Z,3.60
2022-12-29T21:59:35.598Z,3.60
2022-12-29T22:02:23.234Z,3.50
2022-12-29T22:05:09.324Z,3.50
2022-12-29T22:07:55.594Z,3.50
2022-12-29T22:10:41.252Z,3.50
2022-12-29T22:13:08.280Z,3.50
2022-12-29T22:15:40.409Z,3.40
2022-12-29T22:18:07.560Z,3.40
2022-12-29T22:20:36.597Z,3.50
2022-12-29T22:23:03.931Z,3.40
2022-12-29T22:25:31.123Z,3.40
2022-12-29T22:27:59.968Z,3.40
2022-12-29T22:30:30.335Z,3.40
2022-12-29T22:32:59.113Z,3.30
2022-12-29T22:35:26.222Z,3.30
2022-12-29T22:37:53.314Z,3.40
2022-12-29T22:40:20.711Z,3.40
2022-12-29T22:42:47.931Z,3.40
2022-12-29T22:45:15.120Z,3.40
2022-12-29T22:47:42.125Z,3.40
2022-12-29T22:50:10.197Z,3.50
2022-12-29T22:52:37.334Z,3.50
2022-12-29T22:55:07.232Z,3.50
2022-12-29T22:57:35.525Z,3.50
2022-12-29T23:00:04.549Z,3.50
2022-12-29T23:02:31.778Z,3.50
2022-12-29T23:05:03.698Z,3.50
2022-12-29T23:07:32.271Z,3.50
2022-12-29T23:09:59.602Z,3.50
2022-12-29T23:12:30.563Z,3.50
2022-12-29T23:14:57.688Z,3.50
2022-12-29T23:17:25.476Z,3.60
2022-12-29T23:19:52.617Z,3.50
2022-12-29T23:22:20.170Z,3.50
2022-12-29T23:24:47.214Z,3.40
2022-12-29T23:27:14.326Z,3.40
2022-12-29T23:29:41.349Z,3.40
2022-12-29T23:32:08.499Z,3.30
2022-12-29T23:34:35.538Z,3.30
2022-12-29T23:37:02.603Z,3.20
2022-12-29T23:39:29.785Z,3.10
2022-12-29T23:41:57.554Z,3.10
2022-12-29T23:44:24.725Z,3.00
2022-12-29T23:46:51.868Z,3.00
2022-12-29T23:49:19.147Z,2.90
2022-12-29T23:51:46.169Z,2.90
2022-12-29T23:54:13.395Z,2.80
2022-12-29T23:56:40.398Z,2.80
2022-12-29T23:59:07.544Z,2.80
